createdAt,value
2023-03-24T00:01:29.486Z,12.00
2023-03-24T00:03:59.261Z,11.90
2023-03-24T00:06:27.820Z,11.90
2023-03-24T00:08:57.678Z,11.90
2023-03-24T00:11:26.478Z,11.90
2023-03-24T00:13:58.506Z,11.90
2023-03-24T00:16:27.059Z,11.90
2023-03-24T00:18:55.777Z,11.80
2023-03-24T00:21:25.796Z,11.80
2023-03-24T00:23:55.867Z,11.80
2023-03-24T00:26:26.269Z,11.80
2023-03-24T00:28:55.645Z,11.80
2023-03-24T00:31:25.864Z,11.70
2023-03-24T00:33:54.894Z,11.70
2023-03-24T00:36:24.974Z,11.70
2023-03-24T00:38:54.284Z,11.70
2023-03-24T00:41:27.024Z,11.70
2023-03-24T00:43:59.217Z,11.70
2023-03-24T00:46:31.035Z,11.60
2023-03-24T00:49:03.747Z,11.60
2023-03-24T00:51:34.009Z,11.60
2023-03-24T00:54:03.141Z,11.60
2023-03-24T00:56:33.578Z,11.60
2023-03-24T00:59:03.600Z,11.60
2023-03-24T01:01:36.638Z,11.60
2023-03-24T01:04:07.277Z,11.60
2023-03-24T01:06:37.723Z,11.60
2023-03-24T01:09:07.353Z,11.60
2023-03-24T01:11:41.892Z,11.60
2023-03-24T01:14:12.834Z,11.60
2023-03-24T01:16:42.160Z,11.60
2023-03-24T01:19:11.425Z,11.60
2023-03-24T01:21:42.357Z,11.60
2023-03-24T01:24:11.224Z,11.60
2023-03-24T01:26:39.628Z,11.60
2023-03-24T01:29:08.109Z,11.60
2023-03-24T01:31:38.236Z,11.60
2023-03-24T01:34:08.678Z,11.60
2023-03-24T01:36:40.492Z,11.60
2023-03-24T01:39:12.204Z,11.70
2023-03-24T01:41:42.517Z,11.70
2023-03-24T01:44:31.097Z,11.70
2023-03-24T01:47:01.836Z,11.70
2023-03-24T01:49:39.260Z,11.70
2023-03-24T01:52:12.357Z,11.70
2023-03-24T01:54:45.418Z,11.80
2023-03-24T01:57:17.907Z,11.80
2023-03-24T01:59:50.181Z,11.80
2023-03-24T02:02:22.243Z,11.80
2023-03-24T02:04:56.041Z,11.80
2023-03-24T02:07:33.896Z,11.80
2023-03-24T02:10:04.599Z,11.80
2023-03-24T02:12:34.095Z,11.80
2023-03-24T02:15:03.539Z,11.80
2023-03-24T02:18:01.029Z,11.80
2023-03-24T02:20:49.614Z,11.90
2023-03-24T02:23:49.746Z,11.90
2023-03-24T02:26:41.540Z,11.90
2023-03-24T02:29:43.403Z,11.90
2023-03-24T02:32:35.298Z,11.90
2023-03-24T02:35:59.912Z,11.90
2023-03-24T02:39:04.269Z,11.90
2023-03-24T02:41:40.264Z,11.90
2023-03-24T02:44:16.033Z,11.80
2023-03-24T02:46:48.542Z,11.90
2023-03-24T02:49:29.862Z,11.90
2023-03-24T02:52:05.451Z,11.90
2023-03-24T02:54:45.266Z,11.90
2023-03-24T02:57:25.846Z,11.90
2023-03-24T03:00:04.968Z,12.00
2023-03-24T03:02:41.094Z,12.00
2023-03-24T03:05:15.132Z,12.00
2023-03-24T03:07:50.224Z,12.00
2023-03-24T03:10:32.745Z,12.00
2023-03-24T03:13:07.388Z,12.00
2023-03-24T03:15:47.659Z,12.00
2023-03-24T03:18:27.033Z,12.00
2023-03-24T03:21:02.913Z,12.00
2023-03-24T03:23:37.182Z,12.00
2023-03-24T03:26:12.495Z,12.10
2023-03-24T03:28:50.235Z,12.10
2023-03-24T03:31:50.226Z,12.10
2023-03-24T03:34:42.379Z,12.10
2023-03-24T03:37:39.564Z,12.00
2023-03-24T03:40:50.801Z,12.00
2023-03-24T03:44:18.837Z,12.00
2023-03-24T03:47:40.114Z,12.00
2023-03-24T03:50:25.892Z,12.00
2023-03-24T03:53:10.451Z,11.90
2023-03-24T03:56:00.611Z,11.90
2023-03-24T03:58:51.037Z,11.90
2023-03-24T04:01:44.064Z,11.90
2023-03-24T04:04:50.599Z,11.90
2023-03-24T04:08:12.269Z,11.90
2023-03-24T04:11:35.993Z,12.00
2023-03-24T04:14:58.618Z,12.00
2023-03-24T04:18:33.434Z,12.00
2023-03-24T04:21:55.001Z,12.00
2023-03-24T04:25:45.649Z,12.10
2023-03-24T04:28:32.069Z,12.10
2023-03-24T04:31:35.117Z,12.10
2023-03-24T04:34:32.006Z,12.10
2023-03-24T04:37:29.309Z,12.20
2023-03-24T04:40:09.359Z,12.30
2023-03-24T04:43:14.296Z,12.40
2023-03-24T04:45:58.684Z,12.40
2023-03-24T04:49:17.788Z,12.40
2023-03-24T04:52:32.383Z,12.40
2023-03-24T04:55:25.585Z,12.50
2023-03-24T04:58:17.090Z,12.50
2023-03-24T05:01:04.122Z,12.50
2023-03-24T05:03:53.874Z,12.70
2023-03-24T05:06:49.159Z,12.70
2023-03-24T05:09:37.537Z,12.80
2023-03-24T05:12:55.951Z,12.80
2023-03-24T05:19:10.111Z,12.90
2023-03-24T05:25:52.245Z,12.90
2023-03-24T05:28:57.952Z,13.00
2023-03-24T05:32:26.720Z,13.10
2023-03-24T05:35:39.269Z,13.10
2023-03-24T05:38:33.847Z,13.10
2023-03-24T05:41:21.926Z,13.00
2023-03-24T05:44:21.682Z,13.00
2023-03-24T05:47:13.850Z,12.90
2023-03-24T05:50:19.951Z,12.90
2023-03-24T05:53:47.414Z,12.90
2023-03-24T06:00:19.630Z,12.50
2023-03-24T06:03:22.551Z,12.50
2023-03-24T06:06:06.791Z,12.60
2023-03-24T06:09:03.193Z,12.60
2023-03-24T06:15:03.712Z,12.70
2023-03-24T06:21:09.876Z,12.70
2023-03-24T06:30:23.006Z,12.70
2023-03-24T06:33:15.245Z,12.60
2023-03-24T06:36:34.938Z,12.50
2023-03-24T06:39:18.473Z,12.40
2023-03-24T06:41:58.968Z,12.30
2023-03-24T06:44:49.278Z,12.10
2023-03-24T06:47:30.284Z,12.10
2023-03-24T06:50:28.882Z,12.00
2023-03-24T06:53:25.248Z,12.30
2023-03-24T06:56:10.248Z,12.20
2023-03-24T06:59:01.473Z,12.40
2023-03-24T07:01:41.825Z,12.70
2023-03-24T07:04:24.721Z,12.30
2023-03-24T07:08:06.586Z,12.00
2023-03-24T07:10:54.517Z,11.80
2023-03-24T07:20:17.000Z,11.80
2023-03-24T07:23:21.306Z,11.60
2023-03-24T07:26:35.008Z,11.50
2023-03-24T07:29:43.431Z,11.80
2023-03-24T07:32:12.585Z,12.00
2023-03-24T07:34:41.439Z,12.70
2023-03-24T07:37:09.971Z,13.00
2023-03-24T07:39:38.291Z,13.10
2023-03-24T07:42:06.960Z,13.00
2023-03-24T07:44:37.083Z,13.10
2023-03-24T07:47:05.447Z,13.10
2023-03-24T07:49:33.890Z,13.00
2023-03-24T07:52:06.546Z,12.80
2023-03-24T07:54:35.568Z,12.70
2023-03-24T07:57:04.003Z,12.40
2023-03-24T07:59:34.133Z,12.60
2023-03-24T08:02:03.965Z,12.90
2023-03-24T08:04:33.601Z,13.20
2023-03-24T08:07:01.934Z,13.30
2023-03-24T08:09:30.182Z,13.00
2023-03-24T08:12:02.219Z,13.10
2023-03-24T08:14:35.348Z,13.20
2023-03-24T08:17:04.987Z,12.90
2023-03-24T08:19:33.354Z,12.90
2023-03-24T08:22:02.201Z,12.80
2023-03-24T08:24:30.580Z,12.90
2023-03-24T08:27:02.874Z,13.20
2023-03-24T08:29:31.191Z,13.30
2023-03-24T08:31:59.473Z,13.30
2023-03-24T08:34:29.686Z,13.30
2023-03-24T08:36:58.013Z,13.40
2023-03-24T08:39:26.332Z,13.30
2023-03-24T08:41:55.054Z,13.50
2023-03-24T08:44:23.306Z,13.50
2023-03-24T08:46:51.741Z,13.40
2023-03-24T08:49:20.008Z,13.70
2023-03-24T08:51:49.769Z,14.10
2023-03-24T08:54:18.099Z,14.30
2023-03-24T08:56:46.477Z,14.20
2023-03-24T08:59:14.817Z,14.10
2023-03-24T09:01:43.175Z,14.10
2023-03-24T09:04:11.536Z,13.90
2023-03-24T09:06:39.834Z,13.80
2023-03-24T09:09:09.508Z,13.90
2023-03-24T09:11:38.704Z,14.00
2023-03-24T09:14:07.189Z,14.00
2023-03-24T09:16:38.649Z,13.90
2023-03-24T09:19:09.858Z,13.90
2023-03-24T09:21:38.537Z,14.00
2023-03-24T09:24:07.264Z,14.10
2023-03-24T09:26:36.989Z,14.20
2023-03-24T09:29:05.509Z,14.00
2023-03-24T09:31:33.950Z,13.90
2023-03-24T09:34:04.260Z,14.20
2023-03-24T09:36:32.739Z,14.10
2023-03-24T09:39:01.126Z,13.90
2023-03-24T09:41:34.245Z,13.80
2023-03-24T09:44:08.660Z,13.90
2023-03-24T09:46:40.252Z,14.00
2023-03-24T09:49:13.277Z,14.10
2023-03-24T09:51:44.520Z,14.20
2023-03-24T09:54:20.020Z,14.00
2023-03-24T09:56:51.363Z,14.10
2023-03-24T09:59:22.715Z,14.20
2023-03-24T10:01:52.191Z,14.40
2023-03-24T10:04:22.606Z,14.30
2023-03-24T10:06:53.650Z,14.30
2023-03-24T10:09:28.723Z,14.40
2023-03-24T10:12:12.682Z,14.50
2023-03-24T10:15:02.147Z,14.60
2023-03-24T10:17:41.941Z,14.30
2023-03-24T10:20:22.287Z,14.20
2023-03-24T10:23:00.935Z,14.00
2023-03-24T10:25:47.179Z,14.20
2023-03-24T10:28:21.104Z,14.20
2023-03-24T10:30:54.062Z,14.20
2023-03-24T10:33:22.387Z,14.00
2023-03-24T10:35:58.190Z,13.90
2023-03-24T10:38:27.083Z,14.00
2023-03-24T10:40:55.916Z,14.00
2023-03-24T10:43:26.160Z,13.80
2023-03-24T10:45:58.570Z,13.70
2023-03-24T10:48:43.682Z,13.60
2023-03-24T10:51:17.525Z,13.60
2023-03-24T10:53:48.754Z,13.70
2023-03-24T10:56:38.285Z,13.70
2023-03-24T10:59:16.865Z,13.90
2023-03-24T11:01:47.373Z,13.70
2023-03-24T11:04:20.011Z,13.80
2023-03-24T11:07:06.992Z,14.00
2023-03-24T11:09:42.794Z,14.00
2023-03-24T11:12:23.995Z,14.10
2023-03-24T11:14:54.191Z,14.20
2023-03-24T11:17:25.082Z,14.50
2023-03-24T11:19:54.880Z,14.60
2023-03-24T11:22:23.501Z,14.90
2023-03-24T11:24:54.059Z,15.30
2023-03-24T11:27:22.670Z,15.10
2023-03-24T11:29:55.020Z,14.80
2023-03-24T11:32:28.205Z,14.50
2023-03-24T11:35:04.639Z,14.50
2023-03-24T11:37:35.951Z,14.50
2023-03-24T11:40:18.872Z,14.30
2023-03-24T11:42:48.470Z,14.20
2023-03-24T11:45:29.660Z,14.20
2023-03-24T11:48:00.866Z,14.20
2023-03-24T11:50:31.520Z,14.30
2023-03-24T11:53:05.517Z,14.40
2023-03-24T11:55:38.322Z,14.40
2023-03-24T11:58:17.364Z,14.80
2023-03-24T12:00:50.206Z,14.80
2023-03-24T12:03:58.018Z,15.00
2023-03-24T12:06:42.255Z,15.10
2023-03-24T12:09:22.451Z,15.40
2023-03-24T12:12:07.749Z,15.40
2023-03-24T12:14:51.922Z,15.40
2023-03-24T12:17:24.588Z,15.00
2023-03-24T12:20:06.452Z,14.70
2023-03-24T12:22:44.611Z,14.90
2023-03-24T12:25:35.572Z,14.80
2023-03-24T12:28:20.860Z,15.30
2023-03-24T12:30:59.699Z,15.10
2023-03-24T12:33:45.006Z,15.50
2023-03-24T12:36:37.327Z,16.00
2023-03-24T12:39:11.770Z,16.20
2023-03-24T12:41:49.663Z,16.00
2023-03-24T12:44:29.934Z,15.70
2023-03-24T12:47:09.268Z,15.70
2023-03-24T12:49:56.621Z,15.50
2023-03-24T12:52:51.107Z,15.30
2023-03-24T12:55:36.588Z,15.10
2023-03-24T12:58:11.820Z,14.90
2023-03-24T13:00:45.349Z,15.00
2023-03-24T13:03:19.489Z,15.20
2023-03-24T13:05:51.921Z,15.30
2023-03-24T13:08:29.745Z,15.20
2023-03-24T13:11:05.354Z,15.20
2023-03-24T13:13:39.648Z,15.10
2023-03-24T13:16:12.802Z,15.10
2023-03-24T13:18:45.130Z,15.30
2023-03-24T13:21:17.137Z,15.80
2023-03-24T13:23:55.071Z,15.90
2023-03-24T13:26:36.858Z,15.90
2023-03-24T13:29:48.656Z,15.90
2023-03-24T13:32:30.209Z,15.60
2023-03-24T13:35:05.043Z,15.60
2023-03-24T13:37:37.772Z,15.90
2023-03-24T13:40:12.310Z,15.80
2023-03-24T13:42:49.174Z,15.60
2023-03-24T13:45:33.413Z,15.20
2023-03-24T13:48:17.524Z,15.00
2023-03-24T13:50:54.531Z,15.00
2023-03-24T13:53:36.915Z,15.30
2023-03-24T13:56:07.766Z,15.50
2023-03-24T13:59:06.096Z,15.80
2023-03-24T14:01:37.374Z,16.10
2023-03-24T14:04:30.390Z,16.40
2023-03-24T14:07:00.077Z,16.80
2023-03-24T14:09:30.987Z,16.60
2023-03-24T14:12:20.865Z,16.50
2023-03-24T14:15:16.101Z,16.60
2023-03-24T14:17:46.414Z,16.50
2023-03-24T14:20:28.381Z,16.00
2023-03-24T14:22:56.958Z,15.90
2023-03-24T14:25:28.480Z,16.30
2023-03-24T14:28:18.120Z,16.60
2023-03-24T14:31:10.268Z,16.50
2023-03-24T14:33:39.543Z,16.30
2023-03-24T14:36:12.285Z,16.00
2023-03-24T14:38:44.050Z,15.80
2023-03-24T14:41:17.087Z,15.60
2023-03-24T14:43:57.862Z,15.30
2023-03-24T14:46:43.335Z,15.10
2023-03-24T14:49:23.246Z,15.10
2023-03-24T14:52:01.300Z,15.20
2023-03-24T14:54:38.188Z,15.10
2023-03-24T14:57:08.593Z,15.10
2023-03-24T14:59:49.673Z,15.10
2023-03-24T15:02:31.155Z,14.90
2023-03-24T15:05:25.132Z,14.90
2023-03-24T15:08:16.756Z,14.80
2023-03-24T15:10:49.662Z,14.70
2023-03-24T15:13:39.430Z,14.70
2023-03-24T15:16:17.866Z,14.60
2023-03-24T15:19:00.627Z,14.60
2023-03-24T15:21:34.409Z,14.10
2023-03-24T15:24:04.946Z,12.60
2023-03-24T15:26:33.999Z,12.00
2023-03-24T15:29:05.622Z,11.10
2023-03-24T15:31:34.371Z,10.70
2023-03-24T15:34:24.243Z,10.50
2023-03-24T15:36:56.573Z,10.30
2023-03-24T15:39:28.646Z,10.20
2023-03-24T15:42:07.461Z,10.30
2023-03-24T15:44:40.843Z,10.30
2023-03-24T15:47:16.144Z,10.30
2023-03-24T15:49:53.221Z,10.20
2023-03-24T15:52:35.441Z,10.20
2023-03-24T15:55:10.127Z,10.20
2023-03-24T15:57:44.173Z,10.10
2023-03-24T16:00:24.549Z,10.10
2023-03-24T16:02:55.395Z,10.10
2023-03-24T16:05:28.980Z,10.10
2023-03-24T16:07:58.529Z,10.20
2023-03-24T16:10:32.573Z,10.30
2023-03-24T16:13:23.279Z,10.40
2023-03-24T16:16:07.885Z,10.50
2023-03-24T16:18:39.636Z,10.50
2023-03-24T16:21:18.864Z,10.60
2023-03-24T16:23:49.671Z,10.60
2023-03-24T16:26:20.021Z,10.60
2023-03-24T16:28:51.597Z,10.60
2023-03-24T16:31:25.624Z,10.50
2023-03-24T16:33:57.240Z,10.50
2023-03-24T16:36:31.335Z,10.50
2023-03-24T16:39:01.733Z,10.50
2023-03-24T16:41:31.539Z,10.50
2023-03-24T16:43:59.987Z,10.50
2023-03-24T16:46:36.097Z,10.40
2023-03-24T16:49:06.995Z,10.40
2023-03-24T16:51:36.622Z,10.30
2023-03-24T16:54:05.179Z,10.30
2023-03-24T16:56:33.609Z,10.20
2023-03-24T16:59:02.317Z,10.20
2023-03-24T17:01:37.797Z,10.20
2023-03-24T17:04:12.520Z,10.10
2023-03-24T17:06:47.418Z,10.10
2023-03-24T17:09:16.096Z,10.10
2023-03-24T17:11:48.547Z,10.00
2023-03-24T17:14:17.670Z,10.00
2023-03-24T17:16:49.314Z,10.00
2023-03-24T17:19:20.449Z,10.00
2023-03-24T17:21:56.181Z,10.00
2023-03-24T17:27:21.442Z,10.00
2023-03-24T17:29:50.120Z,10.10
2023-03-24T17:32:22.404Z,10.10
2023-03-24T17:34:51.185Z,10.20
2023-03-24T17:37:21.517Z,10.20
2023-03-24T17:39:50.081Z,10.20
2023-03-24T17:42:19.051Z,10.20
2023-03-24T17:44:47.623Z,10.20
2023-03-24T17:47:15.924Z,10.20
2023-03-24T17:49:44.240Z,10.20
2023-03-24T17:52:12.630Z,10.20
2023-03-24T17:54:44.040Z,10.10
2023-03-24T17:57:13.833Z,10.10
2023-03-24T17:59:42.179Z,10.10
2023-03-24T18:02:13.416Z,10.10
2023-03-24T18:04:41.676Z,10.10
2023-03-24T18:07:09.895Z,10.00
2023-03-24T18:09:38.767Z,10.10
2023-03-24T18:12:08.847Z,10.10
2023-03-24T18:14:37.138Z,10.10
2023-03-24T18:17:09.529Z,10.10
2023-03-24T18:19:38.342Z,10.10
2023-03-24T18:22:06.609Z,10.00
2023-03-24T18:24:35.026Z,10.00
2023-03-24T18:27:03.931Z,10.00
2023-03-24T18:29:34.218Z,9.90
2023-03-24T18:32:03.198Z,9.90
2023-03-24T18:34:32.168Z,9.90
2023-03-24T18:37:01.288Z,9.90
2023-03-24T18:39:29.851Z,9.90
2023-03-24T18:41:58.357Z,9.90
2023-03-24T18:44:27.024Z,9.90
2023-03-24T18:46:57.307Z,9.90
2023-03-24T18:49:25.705Z,9.90
2023-03-24T18:51:54.337Z,9.90
2023-03-24T18:54:23.044Z,9.90
2023-03-24T18:56:51.787Z,9.90
2023-03-24T18:59:21.017Z,9.90
2023-03-24T19:01:51.057Z,9.90
2023-03-24T19:04:20.902Z,9.90
2023-03-24T19:06:50.391Z,9.90
2023-03-24T19:09:22.147Z,9.90
2023-03-24T19:11:51.177Z,9.90
2023-03-24T19:14:19.501Z,9.90
2023-03-24T19:16:47.717Z,9.80
2023-03-24T19:19:18.565Z,9.80
2023-03-24T19:21:50.604Z,9.70
2023-03-24T19:24:19.071Z,9.70
2023-03-24T19:26:50.899Z,9.70
2023-03-24T19:29:19.689Z,9.70
2023-03-24T19:31:48.841Z,9.60
2023-03-24T19:34:18.150Z,9.60
2023-03-24T19:36:49.583Z,9.50
2023-03-24T19:39:22.552Z,9.50
2023-03-24T19:41:51.233Z,9.50
2023-03-24T19:44:22.696Z,9.40
2023-03-24T19:46:52.153Z,9.40
2023-03-24T19:49:21.355Z,9.30
2023-03-24T19:51:51.442Z,9.30
2023-03-24T19:54:20.711Z,9.20
2023-03-24T19:56:52.759Z,9.10
2023-03-24T19:59:21.273Z,9.10
2023-03-24T20:01:49.597Z,9.00
2023-03-24T20:04:18.186Z,9.00
2023-03-24T20:06:46.588Z,9.00
2023-03-24T20:09:17.883Z,8.90
2023-03-24T20:11:47.662Z,9.00
2023-03-24T20:14:18.016Z,8.90
2023-03-24T20:16:46.607Z,8.90
2023-03-24T20:19:14.878Z,8.90
2023-03-24T20:21:54.386Z,8.90
2023-03-24T20:24:25.179Z,8.90
2023-03-24T20:26:53.814Z,8.80
2023-03-24T20:29:23.105Z,8.80
2023-03-24T20:31:55.237Z,8.80
2023-03-24T20:34:24.667Z,8.90
2023-03-24T20:36:56.917Z,8.90
2023-03-24T20:39:28.052Z,8.90
2023-03-24T20:41:59.785Z,8.90
2023-03-24T20:44:31.159Z,8.90
2023-03-24T20:47:20.244Z,8.90
2023-03-24T20:50:01.004Z,9.00
2023-03-24T20:52:30.889Z,8.90
2023-03-24T20:55:02.081Z,8.90
2023-03-24T20:57:32.279Z,8.90
2023-03-24T21:00:00.753Z,8.90
2023-03-24T21:02:31.728Z,8.90
2023-03-24T21:05:00.120Z,8.90
2023-03-24T21:07:28.547Z,8.90
2023-03-24T21:09:56.798Z,8.80
2023-03-24T21:12:26.741Z,8.80
2023-03-24T21:14:55.488Z,8.80
2023-03-24T21:17:32.617Z,8.80
2023-03-24T21:20:16.161Z,8.80
2023-03-24T21:22:55.169Z,8.80
2023-03-24T21:25:25.695Z,8.80
2023-03-24T21:27:55.488Z,8.80
2023-03-24T21:30:24.319Z,8.90
2023-03-24T21:32:54.318Z,8.90
2023-03-24T21:35:24.929Z,8.90
2023-03-24T21:37:54.039Z,9.00
2023-03-24T21:40:24.717Z,9.00
2023-03-24T21:42:55.845Z,9.10
2023-03-24T21:45:24.505Z,9.10
2023-03-24T21:47:55.330Z,9.10
2023-03-24T21:50:24.133Z,9.20
2023-03-24T21:52:53.552Z,9.30
2023-03-24T21:55:23.305Z,9.30
2023-03-24T21:57:52.237Z,9.40
2023-03-24T22:00:23.839Z,9.40
2023-03-24T22:02:54.193Z,9.50
2023-03-24T22:05:24.787Z,9.40
2023-03-24T22:07:54.089Z,9.40
2023-03-24T22:10:23.101Z,9.40
2023-03-24T22:12:52.303Z,9.40
2023-03-24T22:15:22.818Z,9.40
2023-03-24T22:17:51.538Z,9.50
2023-03-24T22:20:20.504Z,9.40
2023-03-24T22:22:49.053Z,9.50
2023-03-24T22:25:19.024Z,9.50
2023-03-24T22:27:50.615Z,9.50
2023-03-24T22:30:21.528Z,9.40
2023-03-24T22:32:49.948Z,9.40
2023-03-24T22:35:18.596Z,9.40
2023-03-24T22:37:47.020Z,9.40
2023-03-24T22:40:15.438Z,9.40
2023-03-24T22:42:43.699Z,9.40
2023-03-24T22:45:12.818Z,9.40
2023-03-24T22:47:42.586Z,9.40
2023-03-24T22:50:11.560Z,9.40
2023-03-24T22:52:39.922Z,9.40
2023-03-24T22:55:10.117Z,9.30
2023-03-24T22:57:38.488Z,9.30
2023-03-24T23:00:08.337Z,9.40
2023-03-24T23:02:36.869Z,9.40
2023-03-24T23:05:07.412Z,9.40
2023-03-24T23:07:35.700Z,9.40
2023-03-24T23:10:06.456Z,9.40
2023-03-24T23:12:34.928Z,9.40
2023-03-24T23:15:03.897Z,9.30
2023-03-24T23:17:32.276Z,9.30
2023-03-24T23:20:00.661Z,9.40
2023-03-24T23:22:31.719Z,9.30
2023-03-24T23:25:01.915Z,9.30
2023-03-24T23:27:34.959Z,9.30
2023-03-24T23:30:04.480Z,9.30
2023-03-24T23:32:34.273Z,9.20
2023-03-24T23:35:03.549Z,9.20
2023-03-24T23:37:34.120Z,9.20
2023-03-24T23:40:09.455Z,9.10
2023-03-24T23:42:39.290Z,9.10
2023-03-24T23:45:08.585Z,9.10
2023-03-24T23:47:38.051Z,9.10
2023-03-24T23:50:08.193Z,9.10
2023-03-24T23:52:38.013Z,9.10
2023-03-24T23:55:06.698Z,9.20
2023-03-24T23:57:35.252Z,9.20
